Time;durP1;ratioP1;P1;durP2;ratioP2;P2;SDS_P1;SDS_P2;PMS_P1;PMS_P2;Temp;Humidity;BMP_temperature;BMP_pressure;BME280_temperature;BME280_humidity;BME280_pressure;Samples;Min_cycle;Max_cycle;Signal;HPM_P1;HPM_P2
2023/09/17 00:00:12;;;;;;;9.55;7.65;;;17.70;99.90;;;;;;5017354;28;20164;-85
2023/09/17 00:02:38;;;;;;;11.48;8.30;;;17.60;99.90;;;;;;5013170;28;20034;-85
2023/09/17 00:05:04;;;;;;;8.90;7.57;;;17.60;99.90;;;;;;5022106;28;20034;-84
2023/09/17 00:07:30;;;;;;;12.13;7.38;;;17.60;99.90;;;;;;4996012;28;20482;-85
2023/09/17 00:09:56;;;;;;;11.55;8.50;;;17.50;99.90;;;;;;5012157;28;20036;-85
2023/09/17 00:12:21;;;;;;;13.23;8.00;;;17.40;99.90;;;;;;4995423;28;20113;-85
2023/09/17 00:14:48;;;;;;;12.52;7.82;;;17.30;99.90;;;;;;5011527;28;20116;-85
2023/09/17 00:17:14;;;;;;;11.70;7.43;;;17.30;99.90;;;;;;4991689;28;20113;-85
2023/09/17 00:19:40;;;;;;;11.80;8.23;;;17.30;99.90;;;;;;4997414;28;20126;-85
2023/09/17 00:22:08;;;;;;;10.50;7.93;;;17.30;99.90;;;;;;4994713;28;20777;-85
2023/09/17 00:24:35;;;;;;;10.02;8.20;;;17.30;99.90;;;;;;4998758;28;20041;-85
2023/09/17 00:27:00;;;;;;;14.40;7.90;;;17.40;99.90;;;;;;4995014;28;20041;-85
2023/09/17 00:29:26;;;;;;;12.07;7.93;;;17.40;99.90;;;;;;5002443;28;20034;-85
2023/09/17 00:31:52;;;;;;;10.63;8.00;;;17.40;99.90;;;;;;5006390;28;20026;-85
2023/09/17 00:35:01;;;;;;;10.45;7.78;;;17.40;99.90;;;;;;4999472;28;20085;-85
2023/09/17 00:37:27;;;;;;;14.07;8.77;;;17.40;99.90;;;;;;5023871;28;20121;-85
2023/09/17 00:39:52;;;;;;;10.68;8.55;;;17.40;99.90;;;;;;5020531;28;20169;-85
2023/09/17 00:42:18;;;;;;;11.75;8.52;;;17.40;99.90;;;;;;4996737;28;20366;-85
2023/09/17 00:44:44;;;;;;;11.55;8.48;;;17.40;99.90;;;;;;5001594;28;20036;-85
2023/09/17 00:47:36;;;;;;;13.63;8.40;;;17.40;99.90;;;;;;5009610;28;20034;-85
2023/09/17 00:50:02;;;;;;;10.80;8.45;;;17.40;99.90;;;;;;4994626;28;20037;-85
2023/09/17 00:52:29;;;;;;;14.50;8.63;;;17.40;99.90;;;;;;5000869;28;20177;-85
2023/09/17 00:54:56;;;;;;;11.95;8.77;;;17.40;99.90;;;;;;4988865;28;20030;-85
2023/09/17 00:57:22;;;;;;;10.35;8.73;;;17.40;99.90;;;;;;4998339;28;20084;-85
2023/09/17 00:59:48;;;;;;;14.70;8.98;;;17.40;99.90;;;;;;4993872;28;20547;-85
2023/09/17 01:02:20;;;;;;;12.95;9.15;;;17.40;99.90;;;;;;5024521;28;20066;-84
2023/09/17 01:04:49;;;;;;;10.50;7.95;;;17.40;99.90;;;;;;4994937;28;20553;-84
2023/09/17 01:07:17;;;;;;;13.70;8.73;;;17.40;99.90;;;;;;5024419;28;20030;-84
2023/09/17 01:09:43;;;;;;;9.57;7.90;;;17.40;99.90;;;;;;4996709;28;20030;-84
2023/09/17 01:12:09;;;;;;;9.77;8.00;;;17.40;99.90;;;;;;5026449;28;20030;-84
2023/09/17 01:14:36;;;;;;;15.82;8.60;;;17.40;99.90;;;;;;5004039;28;20028;-85
2023/09/17 01:17:03;;;;;;;11.13;8.45;;;17.40;99.90;;;;;;5014510;28;20378;-85
2023/09/17 01:19:32;;;;;;;11.00;8.18;;;17.40;99.90;;;;;;4998099;28;20022;-84
2023/09/17 01:22:20;;;;;;;10.98;8.55;;;17.40;99.90;;;;;;5014690;28;20037;-85
2023/09/17 01:25:18;;;;;;;10.02;8.40;;;17.40;99.90;;;;;;5031039;28;20034;-85
2023/09/17 01:28:15;;;;;;;13.77;8.55;;;17.40;99.90;;;;;;5021997;28;20042;-85
2023/09/17 01:30:41;;;;;;;11.07;8.40;;;17.40;99.90;;;;;;5024247;28;20058;-85
2023/09/17 01:33:09;;;;;;;13.20;9.00;;;17.40;99.90;;;;;;5012962;28;20065;-85
2023/09/17 01:36:03;;;;;;;16.50;9.48;;;17.30;99.90;;;;;;4998092;28;20026;-85
2023/09/17 01:38:38;;;;;;;14.73;8.90;;;17.20;99.90;;;;;;4991228;28;20389;-85
2023/09/17 01:41:06;;;;;;;10.57;8.65;;;17.20;99.90;;;;;;5015131;28;20069;-85
2023/09/17 01:43:33;;;;;;;11.57;9.57;;;17.30;99.90;;;;;;5012847;28;20101;-85
2023/09/17 01:46:00;;;;;;;10.07;8.43;;;17.30;99.90;;;;;;5017567;28;20043;-85
2023/09/17 01:48:27;;;;;;;10.85;9.10;;;17.30;99.90;;;;;;5028205;28;20032;-86
2023/09/17 01:50:54;;;;;;;12.00;8.70;;;17.30;99.90;;;;;;5014806;28;20125;-85
2023/09/17 01:53:20;;;;;;;12.85;9.32;;;17.30;99.90;;;;;;5006095;28;20022;-85
2023/09/17 01:55:52;;;;;;;12.57;8.75;;;17.40;99.90;;;;;;5003513;28;20039;-85
2023/09/17 01:58:20;;;;;;;18.67;9.85;;;17.30;99.90;;;;;;5024354;28;20104;-85
2023/09/17 02:00:45;;;;;;;10.90;9.35;;;17.30;99.90;;;;;;5005569;28;20021;-85
2023/09/17 02:03:11;;;;;;;12.68;9.30;;;17.20;99.90;;;;;;4996346;28;20088;-85
2023/09/17 02:05:36;;;;;;;12.38;8.20;;;17.00;99.90;;;;;;5004654;28;20045;-85
2023/09/17 02:08:03;;;;;;;14.27;9.18;;;16.90;99.90;;;;;;4997134;28;20469;-85
2023/09/17 02:10:29;;;;;;;9.88;8.40;;;16.80;99.90;;;;;;5000075;28;20023;-85
2023/09/17 02:12:55;;;;;;;14.27;8.82;;;16.60;99.90;;;;;;4997780;28;20033;-85
2023/09/17 02:15:21;;;;;;;13.63;9.13;;;16.40;99.90;;;;;;5000562;28;20027;-85
2023/09/17 02:17:50;;;;;;;11.80;9.55;;;16.40;99.90;;;;;;4998580;28;20029;-85
2023/09/17 02:20:16;;;;;;;13.48;9.55;;;16.30;99.90;;;;;;5011968;28;20030;-85
2023/09/17 02:22:42;;;;;;;18.65;10.88;;;16.30;99.90;;;;;;5000107;28;20718;-84
2023/09/17 02:25:09;;;;;;;12.10;8.90;;;16.20;99.90;;;;;;5015961;28;20034;-85
2023/09/17 02:27:34;;;;;;;13.68;9.15;;;16.20;99.90;;;;;;4997646;28;20026;-85
2023/09/17 02:30:00;;;;;;;13.45;9.82;;;16.20;99.90;;;;;;5013513;28;20396;-85
2023/09/17 02:32:26;;;;;;;19.00;12.18;;;16.10;99.90;;;;;;4997357;28;20381;-85
2023/09/17 02:34:52;;;;;;;14.85;10.80;;;16.00;99.90;;;;;;4992052;28;20078;-85
2023/09/17 02:37:18;;;;;;;13.38;10.15;;;16.00;99.90;;;;;;5000443;28;20029;-85
2023/09/17 02:39:44;;;;;;;11.82;10.07;;;16.00;99.90;;;;;;4997553;28;20061;-85
2023/09/17 02:42:10;;;;;;;13.05;10.32;;;16.00;99.90;;;;;;5003421;28;20021;-85
2023/09/17 02:44:36;;;;;;;16.42;10.25;;;16.00;99.90;;;;;;4998429;28;20168;-85
2023/09/17 02:47:02;;;;;;;14.43;10.77;;;16.00;99.90;;;;;;5001461;28;20105;-85
2023/09/17 02:49:28;;;;;;;11.52;10.13;;;16.00;99.90;;;;;;5025924;28;20030;-85
2023/09/17 02:51:54;;;;;;;12.13;10.15;;;16.00;99.90;;;;;;4994683;28;20046;-85
2023/09/17 02:54:20;;;;;;;13.95;10.60;;;16.00;99.90;;;;;;5025887;28;20389;-85
2023/09/17 02:56:46;;;;;;;11.90;10.15;;;16.10;99.90;;;;;;4991022;28;20015;-84
2023/09/17 02:59:12;;;;;;;16.38;10.18;;;16.00;99.90;;;;;;5012697;28;20028;-85
2023/09/17 03:01:38;;;;;;;14.57;10.45;;;16.00;99.90;;;;;;5025960;28;20030;-85
2023/09/17 03:04:04;;;;;;;11.70;9.82;;;16.10;99.90;;;;;;5013052;28;20041;-85
2023/09/17 03:06:36;;;;;;;12.75;10.10;;;16.10;99.90;;;;;;4996250;28;20030;-85
2023/09/17 03:09:09;;;;;;;15.23;10.05;;;16.20;99.90;;;;;;4999208;28;20030;-85
2023/09/17 03:11:35;;;;;;;13.15;10.25;;;16.20;99.90;;;;;;5000387;28;20544;-85
2023/09/17 03:14:02;;;;;;;13.55;10.52;;;16.20;99.90;;;;;;4997162;28;20022;-85
2023/09/17 03:16:29;;;;;;;13.40;11.32;;;16.20;99.90;;;;;;5019075;28;20030;-85
2023/09/17 03:18:56;;;;;;;16.80;11.13;;;16.20;99.90;;;;;;5015045;28;20669;-85
2023/09/17 03:21:22;;;;;;;14.23;10.70;;;16.10;99.90;;;;;;4998327;28;20049;-85
2023/09/17 03:23:47;;;;;;;15.38;11.13;;;16.10;99.90;;;;;;5022124;28;20061;-85
2023/09/17 03:26:13;;;;;;;12.20;9.68;;;16.10;99.90;;;;;;5014018;28;20042;-85
2023/09/17 03:28:39;;;;;;;11.88;9.93;;;16.20;99.90;;;;;;4996535;28;20034;-85
2023/09/17 03:31:05;;;;;;;17.20;11.93;;;16.20;99.90;;;;;;4995497;28;20105;-85
2023/09/17 03:33:32;;;;;;;14.93;10.70;;;16.20;99.90;;;;;;4993151;28;20363;-85
2023/09/17 03:36:01;;;;;;;17.38;10.70;;;16.20;99.90;;;;;;4998691;28;20030;-85
2023/09/17 03:38:29;;;;;;;;;;;16.20;99.90;;;;;;5013150;28;20505;-85
2023/09/17 03:40:55;;;;;;;16.40;9.88;;;16.20;99.90;;;;;;5004055;28;19952;-85
2023/09/17 03:43:21;;;;;;;12.60;9.93;;;16.20;99.90;;;;;;5011743;28;20064;-85
2023/09/17 03:45:47;;;;;;;15.75;11.13;;;16.10;99.90;;;;;;5012353;28;20053;-85
2023/09/17 03:48:13;;;;;;;14.75;10.77;;;16.10;99.90;;;;;;5028763;28;20036;-85
2023/09/17 03:50:40;;;;;;;15.93;12.32;;;16.10;99.90;;;;;;5001510;28;20482;-85
2023/09/17 03:53:07;;;;;;;17.20;12.45;;;16.10;99.90;;;;;;5014009;28;20044;-85
2023/09/17 03:55:34;;;;;;;20.08;13.68;;;16.10;99.90;;;;;;4995384;28;20025;-85
2023/09/17 03:58:01;;;;;;;14.75;12.25;;;16.10;99.90;;;;;;4995088;28;20021;-85
2023/09/17 04:00:33;;;;;;;15.75;12.13;;;16.10;99.90;;;;;;5000392;28;20032;-85
2023/09/17 04:03:00;;;;;;;16.33;12.68;;;16.10;99.90;;;;;;5006081;28;20034;-84
2023/09/17 04:05:25;;;;;;;17.40;13.27;;;16.10;99.90;;;;;;4997366;28;20056;-85
2023/09/17 04:07:51;;;;;;;20.90;13.02;;;16.00;99.90;;;;;;5001255;28;20071;-85
2023/09/17 04:10:17;;;;;;;27.30;15.85;;;16.00;99.90;;;;;;5015740;28;20033;-85
2023/09/17 04:12:44;;;;;;;20.52;14.13;;;16.00;99.90;;;;;;4993771;28;20034;-85
2023/09/17 04:15:21;;;;;;;18.75;15.30;;;16.00;99.90;;;;;;5010493;28;20034;-84
2023/09/17 04:17:52;;;;;;;25.85;17.88;;;16.10;99.90;;;;;;4996719;28;20030;-85
2023/09/17 04:20:19;;;;;;;22.50;16.58;;;16.10;99.90;;;;;;5018023;28;20030;-85
2023/09/17 04:22:49;;;;;;;25.20;17.95;;;16.20;99.90;;;;;;4995181;28;20019;-85
2023/09/17 04:25:16;;;;;;;20.55;14.98;;;16.20;99.90;;;;;;5025884;28;20112;-84
2023/09/17 04:27:44;;;;;;;26.52;16.52;;;16.20;99.90;;;;;;5016156;28;20030;-85
2023/09/17 04:30:14;;;;;;;16.98;13.18;;;16.20;99.90;;;;;;5009703;28;20196;-85
2023/09/17 04:32:41;;;;;;;23.63;15.52;;;16.20;99.90;;;;;;5027592;28;20061;-85
2023/09/17 04:35:12;;;;;;;24.60;17.25;;;16.10;99.90;;;;;;5019030;28;20026;-85
2023/09/17 04:37:40;;;;;;;20.80;15.98;;;16.10;99.90;;;;;;5000652;28;20366;-85
2023/09/17 04:40:11;;;;;;;23.83;17.13;;;16.00;99.90;;;;;;4996760;28;20030;-85
2023/09/17 04:42:45;;;;;;;23.55;16.90;;;16.00;99.90;;;;;;5020883;28;20030;-85
2023/09/17 04:45:36;;;;;;;24.42;16.15;;;15.90;99.90;;;;;;5002602;28;20034;-85
2023/09/17 04:48:09;;;;;;;25.35;18.17;;;15.90;99.90;;;;;;4995944;28;20031;-85
2023/09/17 04:50:35;;;;;;;29.23;19.02;;;15.90;99.90;;;;;;5027301;28;20030;-85
2023/09/17 04:53:02;;;;;;;21.70;15.90;;;15.80;99.90;;;;;;5003900;28;20426;-85
2023/09/17 04:55:28;;;;;;;23.38;16.75;;;15.70;99.90;;;;;;5005141;28;20057;-85
2023/09/17 04:58:34;;;;;;;26.27;17.25;;;15.70;99.90;;;;;;5022473;28;20457;-85
2023/09/17 05:01:03;;;;;;;23.63;16.95;;;15.70;99.90;;;;;;5002107;28;20186;-85
2023/09/17 05:03:30;;;;;;;25.70;18.33;;;15.60;99.90;;;;;;4991169;28;20061;-83
2023/09/17 05:05:56;;;;;;;25.80;18.13;;;15.50;99.90;;;;;;5029169;28;20038;-84
2023/09/17 05:08:22;;;;;;;29.58;20.55;;;15.50;99.90;;;;;;5013497;28;20038;-83
2023/09/17 05:10:48;;;;;;;33.90;21.92;;;15.50;99.90;;;;;;5021574;28;20069;-84
2023/09/17 05:14:06;;;;;;;32.85;21.88;;;15.50;99.90;;;;;;4996020;28;20041;-84
2023/09/17 05:16:32;;;;;;;32.97;21.38;;;15.60;99.90;;;;;;5016507;28;20113;-84
2023/09/17 05:18:59;;;;;;;28.25;20.08;;;15.60;99.90;;;;;;5003728;28;20026;-83
2023/09/17 05:21:25;;;;;;;27.88;18.65;;;15.70;99.90;;;;;;5023909;28;20018;-83
2023/09/17 05:24:19;;;;;;;25.90;18.73;;;15.70;99.90;;;;;;4998091;28;20434;-84
2023/09/17 05:26:45;;;;;;;27.70;19.08;;;15.70;99.90;;;;;;4999370;28;20509;-84
2023/09/17 05:29:43;;;;;;;32.92;19.95;;;15.70;99.90;;;;;;5001302;28;20032;-84
2023/09/17 05:32:09;;;;;;;32.60;20.98;;;15.80;99.90;;;;;;4998483;28;20054;-85
2023/09/17 05:34:35;;;;;;;31.08;19.80;;;15.80;99.90;;;;;;4997614;28;20023;-83
2023/09/17 05:37:01;;;;;;;31.05;21.50;;;15.90;99.90;;;;;;5001953;28;20026;-83
2023/09/17 05:39:27;;;;;;;32.78;23.00;;;16.00;99.90;;;;;;5003004;28;20710;-84
2023/09/17 05:41:55;;;;;;;35.50;23.63;;;16.00;99.90;;;;;;5004675;28;20064;-84
2023/09/17 05:44:21;;;;;;;33.65;22.27;;;16.10;99.90;;;;;;5024946;28;20014;-84
2023/09/17 05:46:46;;;;;;;32.38;21.80;;;16.10;99.90;;;;;;5005168;28;20081;-84
2023/09/17 05:49:12;;;;;;;35.13;23.67;;;16.10;99.90;;;;;;5002357;28;20029;-84
2023/09/17 05:51:39;;;;;;;32.65;22.70;;;16.20;99.90;;;;;;4983485;28;20386;-84
2023/09/17 05:54:05;;;;;;;36.42;24.85;;;16.30;99.90;;;;;;5016388;28;20029;-84
2023/09/17 05:56:31;;;;;;;34.63;23.90;;;16.40;99.90;;;;;;5019425;28;20033;-84
2023/09/17 05:58:58;;;;;;;34.47;24.08;;;16.50;99.90;;;;;;5001262;28;20025;-84
2023/09/17 06:01:24;;;;;;;30.90;24.00;;;16.50;99.90;;;;;;5010813;28;20481;-84
2023/09/17 06:03:50;;;;;;;32.15;21.63;;;16.70;99.90;;;;;;5027340;28;20042;-84
2023/09/17 06:06:17;;;;;;;32.67;22.33;;;16.80;99.90;;;;;;5009166;28;20500;-84
2023/09/17 06:08:44;;;;;;;29.48;19.55;;;16.90;99.90;;;;;;4992174;28;20030;-83
2023/09/17 06:11:11;;;;;;;28.83;19.77;;;17.00;99.90;;;;;;5021170;28;20473;-83
2023/09/17 06:13:37;;;;;;;32.30;21.40;;;17.10;99.90;;;;;;5026630;28;20038;-84
2023/09/17 06:16:04;;;;;;;28.73;19.65;;;17.20;99.90;;;;;;5009710;28;20470;-84
2023/09/17 06:18:32;;;;;;;27.42;19.48;;;17.20;99.90;;;;;;5007746;28;20121;-84
2023/09/17 06:20:59;;;;;;;27.98;20.30;;;17.30;99.90;;;;;;5014783;28;20022;-84
2023/09/17 06:23:27;;;;;;;33.92;22.10;;;17.30;99.90;;;;;;5025036;28;20417;-83
2023/09/17 06:25:53;;;;;;;27.60;19.52;;;17.40;99.90;;;;;;5002446;28;20115;-84
2023/09/17 06:28:19;;;;;;;32.03;21.15;;;17.30;99.90;;;;;;5017684;28;20038;-84
2023/09/17 06:30:45;;;;;;;26.15;19.15;;;17.40;99.90;;;;;;5009513;28;20129;-84
2023/09/17 06:33:11;;;;;;;29.55;20.13;;;17.40;99.90;;;;;;5027453;28;20034;-84
2023/09/17 06:35:38;;;;;;;26.15;20.42;;;17.50;99.90;;;;;;5011936;28;20510;-83
2023/09/17 06:38:04;;;;;;;32.75;22.02;;;17.50;99.90;;;;;;5008972;28;20041;-84
2023/09/17 06:40:30;;;;;;;26.00;19.65;;;17.50;99.90;;;;;;4995886;28;20034;-83
2023/09/17 06:42:56;;;;;;;24.08;17.25;;;17.50;99.90;;;;;;5023709;28;20026;-84
2023/09/17 06:45:22;;;;;;;27.08;19.38;;;17.60;99.90;;;;;;4996296;28;20034;-83
2023/09/17 06:47:49;;;;;;;28.98;20.20;;;17.70;99.90;;;;;;4996167;28;20030;-84
2023/09/17 06:50:14;;;;;;;25.50;19.08;;;17.80;99.90;;;;;;5015082;28;20027;-83
2023/09/17 06:52:40;;;;;;;24.20;18.10;;;18.00;99.90;;;;;;4994046;28;20057;-83
2023/09/17 06:55:06;;;;;;;26.65;18.10;;;18.10;99.90;;;;;;5002300;28;20080;-84
2023/09/17 06:57:32;;;;;;;23.55;16.88;;;18.30;99.90;;;;;;5017323;28;20023;-83
2023/09/17 06:59:58;;;;;;;25.90;16.60;;;18.40;99.90;;;;;;4998674;28;20025;-83
2023/09/17 07:02:23;;;;;;;25.42;16.25;;;18.50;99.90;;;;;;5014598;28;20455;-79
2023/09/17 07:04:49;;;;;;;19.02;14.98;;;18.70;99.90;;;;;;5000523;28;20399;-79
2023/09/17 07:07:15;;;;;;;21.25;15.73;;;18.80;99.90;;;;;;5002484;28;20061;-80
2023/09/17 07:09:41;;;;;;;21.08;13.95;;;18.90;99.90;;;;;;5025457;28;20107;-80
2023/09/17 07:12:07;;;;;;;18.67;13.07;;;19.00;99.90;;;;;;5003745;28;20025;-80
2023/09/17 07:14:33;;;;;;;15.30;12.15;;;19.10;99.90;;;;;;5009103;28;20037;-80
2023/09/17 07:16:59;;;;;;;22.08;15.45;;;19.30;99.90;;;;;;5003585;28;20465;-80
2023/09/17 07:19:25;;;;;;;18.80;13.98;;;19.30;99.90;;;;;;5023745;28;20040;-80
2023/09/17 07:21:50;;;;;;;16.25;11.93;;;19.40;99.90;;;;;;4999133;28;20167;-79
2023/09/17 07:24:16;;;;;;;14.52;12.38;;;19.60;99.90;;;;;;5001399;28;20038;-82
2023/09/17 07:26:42;;;;;;;17.08;10.77;;;19.70;99.90;;;;;;5000917;28;20030;-81
2023/09/17 07:29:09;;;;;;;12.43;10.23;;;19.90;99.90;;;;;;5007351;28;20034;-82
2023/09/17 07:31:35;;;;;;;12.50;10.45;;;20.00;99.90;;;;;;5028588;28;20489;-81
2023/09/17 07:34:01;;;;;;;11.85;9.77;;;20.10;99.90;;;;;;5000854;28;20054;-80
2023/09/17 07:36:27;;;;;;;15.30;10.00;;;20.20;99.90;;;;;;5027406;28;20616;-83
2023/09/17 07:38:53;;;;;;;13.50;9.05;;;20.40;99.90;;;;;;5023136;28;20035;-83
2023/09/17 07:41:19;;;;;;;13.07;8.13;;;20.40;99.90;;;;;;5004240;28;20502;-83
2023/09/17 07:43:45;;;;;;;12.10;7.63;;;20.40;99.90;;;;;;5020881;28;20022;-81
2023/09/17 07:46:13;;;;;;;17.35;8.32;;;20.40;99.90;;;;;;4990063;28;20041;-81
2023/09/17 07:48:43;;;;;;;10.73;7.93;;;20.40;99.90;;;;;;5001060;28;20057;-82
2023/09/17 07:51:09;;;;;;;11.47;8.50;;;20.40;99.90;;;;;;4995720;28;20036;-83
2023/09/17 07:53:44;;;;;;;11.23;8.50;;;20.40;99.90;;;;;;4991010;28;20030;-83
2023/09/17 07:56:10;;;;;;;11.88;8.00;;;20.50;99.90;;;;;;5016518;28;20130;-85
2023/09/17 07:58:36;;;;;;;11.48;9.82;;;20.60;99.90;;;;;;5010953;28;20037;-83
2023/09/17 08:01:05;;;;;;;16.45;14.10;;;20.60;99.90;;;;;;5011682;28;20034;-85
2023/09/17 08:03:31;;;;;;;11.88;8.15;;;20.70;99.90;;;;;;5005451;28;20033;-82
2023/09/17 08:05:57;;;;;;;22.02;13.20;;;20.90;99.90;;;;;;5006522;28;20469;-83
2023/09/17 08:09:06;;;;;;;9.98;8.77;;;21.00;99.90;;;;;;4998328;28;20144;-83
2023/09/17 08:11:31;;;;;;;9.50;7.47;;;21.00;99.90;;;;;;5010592;28;20478;-83
2023/09/17 08:13:57;;;;;;;12.95;7.57;;;21.00;99.90;;;;;;5006811;28;20038;-83
2023/09/17 08:16:26;;;;;;;10.80;7.32;;;21.10;99.90;;;;;;4995123;28;20041;-83
2023/09/17 08:18:51;;;;;;;12.45;7.97;;;21.10;99.90;;;;;;5013672;28;20097;-83
2023/09/17 08:21:18;;;;;;;10.90;7.45;;;21.20;99.90;;;;;;5003024;28;20049;-83
2023/09/17 08:23:46;;;;;;;9.98;7.30;;;21.30;99.90;;;;;;5000921;28;20033;-83
2023/09/17 08:26:11;;;;;;;8.55;6.80;;;21.30;99.90;;;;;;4999785;28;20029;-83
2023/09/17 08:28:41;;;;;;;8.40;6.82;;;21.40;99.90;;;;;;5012430;28;20089;-83
2023/09/17 08:31:06;;;;;;;8.27;6.68;;;21.60;99.90;;;;;;4995072;28;20147;-83
2023/09/17 08:33:32;;;;;;;8.15;6.55;;;21.70;99.90;;;;;;4994667;28;20061;-83
2023/09/17 08:35:57;;;;;;;7.93;6.25;;;21.80;99.90;;;;;;5003557;28;20524;-83
2023/09/17 08:38:23;;;;;;;7.22;6.35;;;22.00;99.90;;;;;;5027535;28;20061;-83
2023/09/17 08:40:49;;;;;;;6.43;5.68;;;23.40;99.90;;;;;;5015539;28;20053;-83
2023/09/17 08:43:16;;;;;;;8.15;6.20;;;25.10;99.90;;;;;;5004044;28;20033;-83
2023/09/17 08:45:42;;;;;;;8.00;6.22;;;26.40;99.90;;;;;;5010830;28;20510;-84
2023/09/17 08:48:08;;;;;;;7.90;5.93;;;27.20;99.90;;;;;;5010754;28;20034;-83
2023/09/17 08:50:35;;;;;;;8.38;5.30;;;27.70;99.90;;;;;;5012849;28;20038;-84
2023/09/17 08:53:08;;;;;;;9.52;5.78;;;28.30;99.90;;;;;;4994237;28;20033;-83
2023/09/17 08:55:34;;;;;;;10.32;5.88;;;28.70;99.90;;;;;;5025972;28;20054;-83
2023/09/17 08:58:06;;;;;;;14.77;4.47;;;29.10;99.90;;;;;;5010603;28;20033;-83
2023/09/17 09:00:35;;;;;;;9.18;5.35;;;28.90;99.90;;;;;;5008689;28;20026;-84
2023/09/17 09:03:05;;;;;;;12.27;5.80;;;29.00;99.90;;;;;;4993201;28;20069;-84
2023/09/17 09:05:37;;;;;;;9.07;5.20;;;28.90;99.90;;;;;;5008480;28;20125;-84
2023/09/17 09:08:04;;;;;;;6.60;4.60;;;29.10;99.90;;;;;;5007129;28;20026;-84
2023/09/17 09:10:31;;;;;;;8.70;5.40;;;29.50;99.90;;;;;;5010627;28;20026;-84
2023/09/17 09:13:00;;;;;;;8.77;5.15;;;29.30;99.90;;;;;;5010371;28;20105;-84
2023/09/17 09:15:26;;;;;;;12.20;5.90;;;29.30;99.90;;;;;;5010281;28;20370;-84
2023/09/17 09:17:55;;;;;;;8.02;4.32;;;29.00;99.90;;;;;;4993795;28;20033;-83
2023/09/17 09:20:21;;;;;;;10.73;4.55;;;28.60;99.90;;;;;;4997184;28;20105;-84
2023/09/17 09:22:47;;;;;;;6.10;4.80;;;28.20;99.90;;;;;;4996465;28;20030;-84
2023/09/17 09:25:15;;;;;;;9.55;6.97;;;27.40;99.90;;;;;;4995052;28;20032;-83
2023/09/17 09:27:41;;;;;;;5.93;5.40;;;26.60;99.90;;;;;;4989460;28;20085;-83
2023/09/17 09:30:11;;;;;;;15.57;6.35;;;26.40;99.90;;;;;;5019945;28;20104;-84
2023/09/17 09:32:38;;;;;;;8.60;7.07;;;26.50;99.90;;;;;;4994865;28;20073;-83
2023/09/17 09:35:05;;;;;;;7.60;5.60;;;26.90;99.90;;;;;;5006550;28;20036;-84
2023/09/17 09:37:31;;;;;;;8.20;5.78;;;27.50;99.90;;;;;;4987153;28;20022;-84
2023/09/17 09:39:58;;;;;;;7.45;5.97;;;27.90;99.90;;;;;;5002773;28;20034;-84
2023/09/17 09:42:25;;;;;;;9.18;6.30;;;28.20;99.90;;;;;;5002385;28;20026;-84
2023/09/17 09:44:52;;;;;;;11.23;5.65;;;28.50;99.90;;;;;;5006447;28;20022;-84
2023/09/17 09:47:22;;;;;;;7.97;4.97;;;28.50;99.90;;;;;;5007196;28;20061;-84
2023/09/17 09:49:49;;;;;;;8.05;5.60;;;28.80;99.90;;;;;;4997657;28;20138;-83
2023/09/17 09:52:15;;;;;;;5.90;4.85;;;28.90;99.90;;;;;;5014314;28;20493;-84
2023/09/17 09:54:42;;;;;;;7.43;4.80;;;29.00;99.90;;;;;;5016440;28;20370;-84
2023/09/17 09:57:26;;;;;;;10.30;5.00;;;29.00;99.90;;;;;;5013778;28;20030;-84
2023/09/17 09:59:52;;;;;;;7.30;4.45;;;29.40;99.90;;;;;;5026275;28;20063;-84
2023/09/17 10:02:21;;;;;;;4.90;3.95;;;29.80;99.90;;;;;;5014347;28;20501;-84
2023/09/17 10:04:48;;;;;;;9.52;4.55;;;29.60;99.90;;;;;;5029808;28;20420;-84
2023/09/17 10:07:17;;;;;;;8.00;4.40;;;29.60;99.90;;;;;;5003379;28;20426;-83
2023/09/17 10:09:43;;;;;;;12.57;4.40;;;30.00;99.90;;;;;;5013550;28;20026;-84
2023/09/17 10:12:09;;;;;;;7.93;4.80;;;30.10;99.90;;;;;;4997352;28;20041;-84
2023/09/17 10:14:37;;;;;;;5.15;4.28;;;29.90;99.90;;;;;;4994438;28;20032;-84
2023/09/17 10:17:05;;;;;;;8.38;4.90;;;30.00;99.90;;;;;;5008445;28;20490;-84
2023/09/17 10:19:34;;;;;;;9.77;4.07;;;30.30;99.90;;;;;;5011915;28;20470;-84
2023/09/17 10:25:47;;;;;;;18.73;5.13;;;30.10;99.90;;;;;;5001589;28;20110;-84
2023/09/17 10:28:15;;;;;;;7.40;3.90;;;30.60;99.90;;;;;;5013602;28;20071;-84
2023/09/17 10:30:43;;;;;;;6.20;4.15;;;30.70;99.90;;;;;;5005458;28;20041;-84
2023/09/17 10:33:11;;;;;;;9.85;4.35;;;30.70;99.90;;;;;;5013796;28;20026;-84
2023/09/17 10:35:39;;;;;;;13.23;4.47;;;30.30;99.90;;;;;;4994561;28;20038;-83
2023/09/17 10:38:07;;;;;;;8.70;5.13;;;29.70;99.90;;;;;;4996615;28;20065;-84
2023/09/17 10:44:23;;;;;;;9.27;4.75;;;29.90;99.90;;;;;;4995617;28;20036;-83
2023/09/17 10:46:50;;;;;;;9.57;5.03;;;29.10;99.90;;;;;;5008961;28;20112;-84
2023/09/17 10:49:22;;;;;;;10.93;4.88;;;29.00;99.90;;;;;;5001933;28;20026;-84
2023/09/17 10:52:13;;;;;;;11.60;4.75;;;29.40;99.90;;;;;;5029432;28;20068;-84
2023/09/17 10:54:39;;;;;;;6.55;4.10;;;29.80;99.90;;;;;;5013058;28;20048;-84
2023/09/17 10:57:11;;;;;;;6.93;4.00;;;30.30;99.90;;;;;;5001433;28;20026;-84
2023/09/17 10:59:37;;;;;;;9.95;4.32;;;30.40;99.90;;;;;;5002778;28;20102;-84
2023/09/17 11:02:05;;;;;;;10.40;4.53;;;30.40;99.90;;;;;;5001577;28;20482;-84
2023/09/17 11:04:31;;;;;;;7.13;4.50;;;30.10;99.90;;;;;;4997469;28;20482;-84
2023/09/17 11:07:00;;;;;;;15.35;4.95;;;29.80;99.90;;;;;;5018617;28;20033;-84
2023/09/17 11:09:26;;;;;;;8.15;4.45;;;30.00;99.90;;;;;;5006000;28;20037;-84
2023/09/17 11:12:14;;;;;;;11.07;4.85;;;30.10;99.90;;;;;;4996214;28;20383;-84
2023/09/17 11:14:40;;;;;;;5.75;4.20;;;30.00;99.90;;;;;;5001952;28;20044;-84
2023/09/17 11:17:09;;;;;;;8.13;3.92;;;30.10;99.90;;;;;;4995968;28;20053;-83
2023/09/17 11:19:34;;;;;;;8.38;4.22;;;30.00;99.90;;;;;;4993911;28;20061;-84
2023/09/17 11:22:04;;;;;;;12.05;4.20;;;30.20;99.90;;;;;;4998287;28;20378;-85
2023/09/17 11:24:32;;;;;;;12.13;3.67;;;30.50;99.90;;;;;;5017554;28;20481;-84
2023/09/17 11:26:58;;;;;;;6.32;3.88;;;30.80;99.90;;;;;;5003805;28;20663;-85
2023/09/17 11:29:45;;;;;;;11.23;4.32;;;30.60;99.90;;;;;;4995539;28;20108;-84
2023/09/17 11:32:13;;;;;;;11.02;4.35;;;29.90;99.90;;;;;;5007400;28;20033;-84
2023/09/17 11:34:42;;;;;;;8.13;4.20;;;29.70;99.90;;;;;;5026401;28;20030;-85
2023/09/17 11:37:08;;;;;;;11.35;4.40;;;29.90;99.90;;;;;;5003939;28;20477;-84
2023/09/17 11:39:35;;;;;;;9.25;3.67;;;30.20;99.90;;;;;;5001026;28;20040;-84
2023/09/17 11:42:03;;;;;;;8.90;4.07;;;30.80;99.90;;;;;;4996574;28;20034;-84
2023/09/17 11:44:34;;;;;;;8.77;4.28;;;30.50;99.90;;;;;;5028088;28;20470;-87
2023/09/17 11:47:00;;;;;;;18.13;4.57;;;29.80;99.90;;;;;;5007702;28;20037;-84
2023/09/17 11:49:28;;;;;;;9.85;4.40;;;29.70;99.90;;;;;;5001544;28;20029;-84
2023/09/17 11:52:24;;;;;;;7.32;3.78;;;30.00;99.90;;;;;;4995171;28;20378;-84
2023/09/17 11:54:52;;;;;;;11.35;5.07;;;29.80;99.90;;;;;;4999788;28;20030;-84
2023/09/17 11:57:23;;;;;;;9.20;4.53;;;29.80;99.90;;;;;;5005512;28;20026;-84
2023/09/17 11:59:49;;;;;;;9.15;4.47;;;29.70;99.90;;;;;;4997497;28;20116;-84
2023/09/17 12:02:17;;;;;;;8.63;4.05;;;30.20;99.90;;;;;;5027795;28;20053;-85
2023/09/17 12:05:21;;;;;;;12.45;4.80;;;30.30;99.90;;;;;;4995138;28;20042;-84
2023/09/17 12:07:48;;;;;;;6.50;3.80;;;30.30;99.90;;;;;;5011478;28;20432;-84
2023/09/17 12:10:14;;;;;;;8.98;4.47;;;30.30;99.90;;;;;;5011423;28;20029;-84
2023/09/17 12:12:40;;;;;;;10.85;4.50;;;30.10;99.90;;;;;;4994850;28;20038;-84
2023/09/17 12:15:09;;;;;;;11.18;4.55;;;29.50;99.90;;;;;;5011217;28;20037;-84
2023/09/17 12:17:36;;;;;;;7.32;3.83;;;29.60;99.90;;;;;;4993053;28;20026;-84
2023/09/17 12:20:19;;;;;;;7.25;3.92;;;29.80;99.90;;;;;;5000358;28;20034;-84
2023/09/17 12:22:56;;;;;;;6.57;4.10;;;29.80;99.90;;;;;;5010828;28;20029;-85
2023/09/17 12:25:22;;;;;;;6.13;3.90;;;29.50;99.90;;;;;;5003655;28;20034;-84
2023/09/17 12:27:48;;;;;;;14.98;4.63;;;29.50;99.90;;;;;;4997474;28;20481;-84
2023/09/17 12:30:15;;;;;;;6.80;4.35;;;29.60;99.90;;;;;;4994942;28;20045;-84
2023/09/17 12:32:40;;;;;;;11.27;4.55;;;29.80;99.90;;;;;;4998499;28;20389;-85
2023/09/17 12:35:07;;;;;;;11.00;5.20;;;29.70;99.90;;;;;;4998698;28;20034;-84
2023/09/17 12:37:33;;;;;;;13.68;4.65;;;29.70;99.90;;;;;;5001094;28;20034;-84
2023/09/17 12:39:59;;;;;;;12.25;4.05;;;29.60;99.90;;;;;;4992247;28;20018;-84
2023/09/17 12:42:25;;;;;;;11.35;4.40;;;29.70;99.90;;;;;;5011202;28;20030;-85
2023/09/17 12:44:52;;;;;;;8.20;3.92;;;29.90;99.90;;;;;;4994633;28;20028;-84
2023/09/17 12:51:05;;;;;;;13.25;4.20;;;30.10;99.90;;;;;;5006830;28;20132;-84
2023/09/17 12:53:53;;;;;;;9.35;4.18;;;30.00;99.90;;;;;;5012009;28;20050;-84